createdAt,value
2017-07-05T00:01:39.513Z,2
2017-07-05T00:11:35.446Z,2
2017-07-05T00:21:37.402Z,2
2017-07-05T00:31:35.481Z,2
2017-07-05T00:41:35.441Z,2
2017-07-05T00:51:35.609Z,2
2017-07-05T01:01:38.537Z,3
2017-07-05T01:11:35.466Z,3
2017-07-05T01:21:35.590Z,2
2017-07-05T01:31:35.480Z,3
2017-07-05T01:41:35.602Z,3
2017-07-05T01:51:35.652Z,3
2017-07-05T02:01:35.615Z,3
2017-07-05T02:11:35.671Z,2
2017-07-05T02:21:35.612Z,2
2017-07-05T02:31:35.603Z,2
2017-07-05T02:41:35.590Z,3
2017-07-05T02:51:35.845Z,2
2017-07-05T03:01:35.855Z,2
2017-07-05T03:11:35.726Z,2
2017-07-05T03:21:35.812Z,2
2017-07-05T03:31:35.928Z,2
2017-07-05T03:41:35.636Z,2
2017-07-05T03:51:35.805Z,2
2017-07-05T04:01:35.731Z,2
2017-07-05T04:11:35.662Z,3
2017-07-05T04:21:35.695Z,2
2017-07-05T04:31:35.664Z,2
2017-07-05T04:41:35.764Z,4
2017-07-05T04:51:35.778Z,3
2017-07-05T05:01:35.845Z,3
2017-07-05T05:11:35.766Z,3
2017-07-05T05:21:35.754Z,3
2017-07-05T05:31:35.911Z,3
2017-07-05T05:41:36.140Z,3
2017-07-05T05:51:43.111Z,3
2017-07-05T06:01:35.805Z,3
2017-07-05T06:11:35.773Z,5
2017-07-05T06:21:36.623Z,3
2017-07-05T06:31:35.777Z,3
2017-07-05T06:41:35.821Z,3
2017-07-05T06:51:35.904Z,3
2017-07-05T07:01:35.946Z,3
2017-07-05T07:11:35.799Z,3
2017-07-05T07:21:35.998Z,3
2017-07-05T07:31:36.104Z,4
2017-07-05T07:41:35.988Z,4
2017-07-05T07:51:35.853Z,5
2017-07-05T08:01:35.766Z,7
2017-07-05T08:11:35.909Z,7
2017-07-05T08:21:35.922Z,7
2017-07-05T08:31:36.815Z,9
2017-07-05T08:41:36.164Z,10
2017-07-05T08:51:35.840Z,12
2017-07-05T09:01:35.935Z,13
2017-07-05T09:11:35.981Z,17
2017-07-05T09:21:36.185Z,16
2017-07-05T09:31:35.856Z,15
2017-07-05T09:41:35.915Z,16
2017-07-05T09:51:35.873Z,14
2017-07-05T10:01:35.811Z,17
2017-07-05T10:11:36.230Z,15
2017-07-05T10:21:35.961Z,13
2017-07-05T10:31:35.864Z,15
2017-07-05T10:41:35.812Z,14
2017-07-05T10:51:35.880Z,14
2017-07-05T11:01:35.838Z,15
2017-07-05T11:11:35.987Z,13
2017-07-05T11:21:35.863Z,14
2017-07-05T11:31:35.890Z,14
2017-07-05T11:41:36.517Z,14
2017-07-05T11:51:35.956Z,18
2017-07-05T12:08:03.276Z,15
2017-07-05T12:11:45.369Z,14
2017-07-05T12:21:35.991Z,12
2017-07-05T12:31:36.220Z,12
2017-07-05T12:41:36.085Z,12
2017-07-05T12:51:35.961Z,13
2017-07-05T13:01:36.269Z,12
2017-07-05T13:11:37.123Z,12
2017-07-05T13:21:36.188Z,11
2017-07-05T13:31:36.276Z,10
2017-07-05T13:41:49.212Z,10
2017-07-05T13:51:39.157Z,11
2017-07-05T14:01:36.068Z,10
2017-07-05T14:11:36.967Z,11
2017-07-05T14:21:36.176Z,11
2017-07-05T14:31:39.157Z,11
2017-07-05T14:41:36.468Z,9
2017-07-05T14:51:36.071Z,10
2017-07-05T15:01:36.119Z,10
2017-07-05T15:22:23.835Z,9
2017-07-05T15:23:04.605Z,9
2017-07-05T15:33:06.047Z,8
2017-07-05T15:43:04.483Z,10
2017-07-05T15:53:04.605Z,11
2017-07-05T16:03:04.530Z,11
2017-07-05T16:13:04.570Z,9
2017-07-05T16:23:04.568Z,10
2017-07-05T16:33:04.639Z,10
2017-07-05T16:43:05.098Z,9
2017-07-05T16:53:04.506Z,10
2017-07-05T17:03:04.633Z,10
2017-07-05T17:13:04.733Z,10
2017-07-05T17:23:04.767Z,10
2017-07-05T17:33:04.651Z,9
2017-07-05T17:43:04.559Z,9
2017-07-05T17:53:04.575Z,10
2017-07-05T18:03:04.733Z,9
2017-07-05T18:13:04.670Z,9
2017-07-05T18:23:04.537Z,8
2017-07-05T18:33:04.602Z,9
2017-07-05T18:43:04.668Z,9
2017-07-05T18:53:04.616Z,8
2017-07-05T19:03:04.693Z,8
2017-07-05T19:13:04.551Z,8
2017-07-05T19:23:04.593Z,7
2017-07-05T19:33:04.600Z,6
2017-07-05T19:43:05.471Z,7
2017-07-05T19:53:04.609Z,6
2017-07-05T20:03:04.688Z,6
2017-07-05T20:13:19.002Z,6
2017-07-05T20:23:14.201Z,6
2017-07-05T20:33:04.736Z,7
2017-07-05T20:43:05.551Z,6
2017-07-05T20:53:06.350Z,7
2017-07-05T21:03:04.687Z,7
2017-07-05T21:13:05.580Z,7
2017-07-05T21:23:05.616Z,8
2017-07-05T21:33:04.995Z,9
2017-07-05T21:43:04.891Z,9
2017-07-05T21:53:06.396Z,7
2017-07-05T22:03:04.758Z,8
2017-07-05T22:13:05.293Z,8
2017-07-05T22:23:06.191Z,8
2017-07-05T22:33:04.832Z,8
2017-07-05T22:43:04.656Z,8
2017-07-05T22:53:04.648Z,8
2017-07-05T23:03:04.681Z,8
2017-07-05T23:13:04.624Z,8
2017-07-05T23:23:04.675Z,9
2017-07-05T23:33:05.042Z,9
2017-07-05T23:43:04.726Z,8
2017-07-05T23:53:05.288Z,8
